Ashland, Kansas
Current Conditions -  °F | °C
As of 9:52 AM on Saturday 22 Nov 2014 (Local Time) from KDDC Reporting Station
Clear Clear  
Wind Chill: 37°   Ceiling: Unl
Heat Index: 44°   Visibility: 9mi
Dew Point: 37°   Wind: 14mph
Humidity: 76%   Direction: 170°S
Pressure: 29.88"   Gusts: NA
Location:  37.19°N, 99.77°W
Report Text: KDDC 221552Z AUTO 17012KT 9SM CLR 07/03 A2988 RMK AO2 SLP124 T00670028
Loading
Personal Weather Stations






























Interactive Weather Map New forecast layout! Learn more

10-Day Weather Forecast

Advertisements
Track Severe Weather on mobile